createdAt,value
2023-05-09T00:01:07.896Z,1.40
2023-05-09T00:03:56.804Z,1.17
2023-05-09T00:06:45.745Z,0.90
2023-05-09T00:09:34.369Z,1.08
2023-05-09T00:12:24.499Z,0.80
2023-05-09T00:15:13.704Z,0.90
2023-05-09T00:18:02.552Z,1.05
2023-05-09T00:20:51.192Z,1.33
2023-05-09T00:23:40.039Z,1.20
2023-05-09T00:26:30.030Z,1.05
2023-05-09T00:29:19.963Z,1.10
2023-05-09T00:32:08.657Z,1.42
2023-05-09T00:34:57.433Z,1.30
2023-05-09T00:37:46.078Z,1.30
2023-05-09T00:40:34.643Z,1.30
2023-05-09T00:43:23.607Z,1.23
2023-05-09T00:46:13.834Z,1.10
2023-05-09T00:49:02.516Z,1.10
2023-05-09T00:51:51.575Z,1.20
2023-05-09T00:54:40.197Z,1.08
2023-05-09T00:57:30.136Z,1.27
2023-05-09T01:00:19.559Z,1.05
2023-05-09T01:03:09.768Z,1.08
2023-05-09T01:06:08.372Z,1.40
2023-05-09T01:09:05.663Z,1.33
2023-05-09T01:12:04.551Z,1.23
2023-05-09T01:15:02.248Z,1.55
2023-05-09T01:17:55.250Z,1.00
2023-05-09T01:20:48.278Z,1.17
2023-05-09T01:24:01.808Z,0.95
2023-05-09T01:27:07.558Z,0.93
2023-05-09T01:30:00.001Z,1.25
2023-05-09T01:32:52.947Z,1.05
2023-05-09T01:35:46.229Z,1.23
2023-05-09T01:38:38.153Z,1.10
2023-05-09T01:41:33.327Z,0.98
2023-05-09T01:44:24.178Z,1.00
2023-05-09T01:47:16.455Z,1.30
2023-05-09T01:50:06.686Z,2.17
2023-05-09T01:52:58.310Z,1.02
2023-05-09T01:55:51.791Z,1.13
2023-05-09T01:58:42.376Z,1.15
2023-05-09T02:01:32.342Z,1.10
2023-05-09T02:04:23.565Z,1.02
2023-05-09T02:07:13.977Z,1.50
2023-05-09T02:10:04.836Z,1.20
2023-05-09T02:12:53.643Z,1.27
2023-05-09T02:15:42.488Z,1.33
2023-05-09T02:18:32.640Z,1.20
2023-05-09T02:21:22.787Z,0.93
2023-05-09T02:24:11.512Z,0.90
2023-05-09T02:27:00.500Z,0.88
2023-05-09T02:29:52.183Z,1.20
2023-05-09T02:32:41.745Z,0.80
2023-05-09T02:35:32.236Z,0.88
2023-05-09T02:38:22.552Z,0.90
2023-05-09T02:41:14.527Z,1.20
2023-05-09T02:44:03.413Z,0.93
2023-05-09T02:46:52.089Z,1.08
2023-05-09T02:49:40.708Z,1.15
2023-05-09T02:52:29.386Z,1.10
2023-05-09T02:55:19.407Z,1.10
2023-05-09T02:58:14.363Z,0.88
2023-05-09T03:01:03.819Z,1.42
2023-05-09T03:03:52.578Z,1.08
2023-05-09T03:06:41.310Z,1.20
2023-05-09T03:09:29.942Z,1.08
2023-05-09T03:12:19.889Z,1.17
2023-05-09T03:15:10.108Z,1.15
2023-05-09T03:17:58.968Z,0.82
2023-05-09T03:20:47.608Z,1.30
2023-05-09T03:23:36.693Z,1.02
2023-05-09T03:26:26.515Z,0.90
2023-05-09T03:29:16.546Z,1.15
2023-05-09T03:32:05.166Z,0.88
2023-05-09T03:34:54.719Z,1.10
2023-05-09T03:37:43.345Z,1.30
2023-05-09T03:40:31.975Z,1.02
2023-05-09T03:43:20.566Z,1.25
2023-05-09T03:46:10.798Z,1.10
2023-05-09T03:48:59.501Z,1.00
2023-05-09T03:51:48.154Z,1.05
2023-05-09T03:54:36.885Z,1.15
2023-05-09T03:57:25.457Z,1.17
2023-05-09T04:00:14.647Z,1.58
2023-05-09T04:03:05.584Z,0.90
2023-05-09T04:05:55.879Z,1.10
2023-05-09T04:08:44.700Z,0.90
2023-05-09T04:11:33.323Z,0.90
2023-05-09T04:14:21.903Z,1.02
2023-05-09T04:17:10.562Z,1.25
2023-05-09T04:20:01.307Z,1.08
2023-05-09T04:22:50.111Z,1.58
2023-05-09T04:25:38.729Z,1.10
2023-05-09T04:28:27.346Z,0.90
2023-05-09T04:31:16.594Z,1.00
2023-05-09T04:34:05.265Z,0.70
2023-05-09T04:36:55.221Z,1.13
2023-05-09T04:39:43.914Z,1.00
2023-05-09T04:42:36.106Z,2.45
2023-05-09T04:45:24.873Z,1.05
2023-05-09T04:48:13.608Z,1.23
2023-05-09T04:51:02.392Z,1.27
2023-05-09T04:53:52.424Z,1.23
2023-05-09T04:56:41.065Z,1.00
2023-05-09T04:59:29.661Z,1.10
2023-05-09T05:02:18.255Z,0.98
2023-05-09T05:05:12.208Z,1.20
2023-05-09T05:08:01.226Z,0.85
2023-05-09T05:10:51.342Z,0.77
2023-05-09T05:13:39.998Z,1.15
2023-05-09T05:16:29.228Z,1.30
2023-05-09T05:19:18.267Z,0.77
2023-05-09T05:22:06.872Z,1.25
2023-05-09T05:24:55.730Z,0.95
2023-05-09T05:27:46.405Z,0.85
2023-05-09T05:30:34.983Z,1.02
2023-05-09T05:33:23.549Z,1.20
2023-05-09T05:36:12.115Z,0.77
2023-05-09T05:39:01.283Z,1.25
2023-05-09T05:41:51.920Z,1.08
2023-05-09T05:44:41.883Z,0.82
2023-05-09T05:47:31.499Z,1.40
2023-05-09T05:50:20.586Z,1.50
2023-05-09T05:53:09.192Z,1.20
2023-05-09T05:55:58.246Z,1.27
2023-05-09T05:58:46.894Z,1.48
2023-05-09T06:01:39.254Z,1.23
2023-05-09T06:04:29.098Z,1.10
2023-05-09T06:07:17.795Z,1.55
2023-05-09T06:10:07.376Z,1.73
2023-05-09T06:12:56.023Z,1.10
2023-05-09T06:15:44.798Z,0.95
2023-05-09T06:18:35.595Z,1.58
2023-05-09T06:21:24.394Z,1.02
2023-05-09T06:24:23.407Z,1.33
2023-05-09T06:27:20.740Z,1.20
2023-05-09T06:30:24.701Z,1.40
2023-05-09T06:33:15.246Z,1.30
2023-05-09T06:36:06.914Z,1.27
2023-05-09T06:38:55.514Z,1.35
2023-05-09T06:41:44.069Z,1.17
2023-05-09T06:44:33.245Z,1.08
2023-05-09T06:47:21.931Z,0.82
2023-05-09T06:50:11.110Z,0.90
2023-05-09T06:53:01.157Z,1.58
2023-05-09T06:55:50.016Z,1.40
2023-05-09T06:58:38.786Z,1.58
2023-05-09T07:01:27.489Z,1.17
2023-05-09T07:04:16.103Z,1.27
2023-05-09T07:07:04.684Z,1.42
2023-05-09T07:10:00.721Z,1.17
2023-05-09T07:12:56.622Z,1.08
2023-05-09T07:15:46.465Z,0.88
2023-05-09T07:18:35.102Z,1.30
2023-05-09T07:21:24.044Z,1.35
2023-05-09T07:24:12.688Z,0.95
2023-05-09T07:27:04.553Z,1.08
2023-05-09T07:29:53.230Z,0.80
2023-05-09T07:32:41.959Z,1.13
2023-05-09T07:35:30.676Z,1.15
2023-05-09T07:38:19.274Z,0.90
2023-05-09T07:41:08.040Z,1.20
2023-05-09T07:43:58.413Z,0.80
2023-05-09T07:46:47.019Z,1.00
2023-05-09T07:49:35.644Z,0.98
2023-05-09T07:52:24.202Z,0.90
2023-05-09T07:55:13.232Z,1.13
2023-05-09T07:58:01.841Z,0.90
2023-05-09T08:00:52.848Z,1.05
2023-05-09T08:03:41.577Z,1.30
2023-05-09T08:06:30.253Z,1.65
2023-05-09T08:09:19.168Z,1.38
2023-05-09T08:12:08.262Z,0.82
2023-05-09T08:14:57.006Z,0.63
2023-05-09T08:17:47.025Z,1.17
2023-05-09T08:20:36.187Z,1.20
2023-05-09T08:23:25.265Z,1.40
2023-05-09T08:26:16.176Z,1.10
2023-05-09T08:29:06.877Z,1.05
2023-05-09T08:31:55.827Z,1.00
2023-05-09T08:34:45.913Z,0.88
2023-05-09T08:37:35.468Z,0.93
2023-05-09T08:40:24.234Z,1.10
2023-05-09T08:43:13.932Z,1.02
2023-05-09T08:46:08.294Z,1.05
2023-05-09T08:48:58.674Z,1.13
2023-05-09T08:51:49.795Z,1.20
2023-05-09T08:54:38.470Z,0.68
2023-05-09T08:57:29.596Z,0.85
2023-05-09T09:00:21.016Z,0.90
2023-05-09T09:03:10.298Z,1.08
2023-05-09T09:06:00.438Z,1.17
2023-05-09T09:08:50.935Z,0.80
2023-05-09T09:11:39.732Z,0.90
2023-05-09T09:14:30.185Z,1.05
2023-05-09T09:17:21.933Z,1.00
2023-05-09T09:20:17.448Z,1.08
2023-05-09T09:23:10.603Z,0.82
2023-05-09T09:26:02.581Z,1.17
2023-05-09T09:28:54.946Z,1.20
2023-05-09T09:31:47.159Z,1.20
2023-05-09T09:34:36.196Z,0.95
2023-05-09T09:37:30.541Z,0.90
2023-05-09T09:40:19.520Z,1.23
2023-05-09T09:43:11.406Z,1.30
2023-05-09T09:46:03.016Z,0.98
2023-05-09T09:48:55.761Z,6.15
2023-05-09T09:51:45.117Z,7.93
2023-05-09T09:54:34.653Z,13.45
2023-05-09T09:57:37.083Z,15.48
2023-05-09T10:00:28.785Z,13.85
2023-05-09T10:03:18.325Z,16.25
2023-05-09T10:06:10.964Z,15.50
2023-05-09T10:09:00.073Z,12.93
2023-05-09T10:11:52.703Z,12.98
2023-05-09T10:14:43.780Z,12.10
2023-05-09T10:17:34.150Z,11.60
2023-05-09T10:20:24.580Z,12.32
2023-05-09T10:23:17.986Z,10.85
2023-05-09T10:26:13.205Z,10.02
2023-05-09T10:29:06.756Z,10.98
2023-05-09T10:32:02.643Z,9.43
2023-05-09T10:34:58.053Z,9.02
2023-05-09T10:37:50.610Z,8.95
2023-05-09T10:40:39.555Z,7.93
2023-05-09T10:43:28.928Z,7.25
2023-05-09T10:46:18.328Z,7.88
2023-05-09T10:49:07.246Z,6.50
2023-05-09T10:51:57.312Z,6.93
2023-05-09T10:54:47.961Z,6.50
2023-05-09T10:57:41.115Z,6.32
2023-05-09T11:00:32.618Z,6.75
2023-05-09T11:03:24.736Z,5.68
2023-05-09T11:06:43.994Z,5.28
2023-05-09T11:09:38.677Z,4.57
2023-05-09T11:12:27.280Z,4.32
2023-05-09T11:15:16.149Z,4.70
2023-05-09T11:18:10.722Z,4.75
2023-05-09T11:21:01.237Z,4.57
2023-05-09T11:23:52.421Z,4.93
2023-05-09T11:26:49.920Z,3.70
2023-05-09T11:29:46.174Z,3.45
2023-05-09T11:32:36.236Z,3.83
2023-05-09T11:35:27.035Z,4.72
2023-05-09T11:38:23.153Z,3.28
2023-05-09T11:41:12.575Z,3.40
2023-05-09T11:44:02.981Z,2.30
2023-05-09T11:47:01.506Z,2.90
2023-05-09T11:49:51.955Z,2.25
2023-05-09T11:52:45.167Z,3.00
2023-05-09T11:55:34.244Z,2.53
2023-05-09T11:58:22.945Z,2.50
2023-05-09T12:01:14.164Z,2.63
2023-05-09T12:04:13.374Z,1.45
2023-05-09T12:07:03.724Z,1.98
2023-05-09T12:09:54.046Z,1.77
2023-05-09T12:12:45.711Z,2.15
2023-05-09T12:15:39.139Z,1.63
2023-05-09T12:18:29.389Z,1.77
2023-05-09T12:21:19.036Z,1.70
2023-05-09T12:24:10.104Z,2.20
2023-05-09T12:27:01.680Z,2.63
2023-05-09T12:29:51.618Z,2.08
2023-05-09T12:32:42.939Z,2.28
2023-05-09T12:35:37.368Z,1.33
2023-05-09T12:38:26.027Z,1.85
2023-05-09T12:41:30.860Z,1.98
2023-05-09T12:44:30.885Z,1.52
2023-05-09T12:47:19.978Z,1.08
2023-05-09T12:50:14.774Z,1.30
2023-05-09T12:53:05.345Z,1.40
2023-05-09T12:55:57.703Z,1.77
2023-05-09T12:58:51.548Z,1.27
2023-05-09T13:01:40.465Z,1.50
2023-05-09T13:04:30.683Z,1.25
2023-05-09T13:07:21.514Z,1.17
2023-05-09T13:10:15.984Z,1.25
2023-05-09T13:13:10.140Z,0.98
2023-05-09T13:15:59.566Z,1.20
2023-05-09T13:18:48.746Z,1.45
2023-05-09T13:21:37.977Z,0.95
2023-05-09T13:24:26.911Z,1.05
2023-05-09T13:27:16.969Z,1.17
2023-05-09T13:30:07.852Z,1.08
2023-05-09T13:33:04.092Z,1.00
2023-05-09T13:36:01.941Z,1.50
2023-05-09T13:38:51.450Z,1.30
2023-05-09T13:41:40.023Z,1.15
2023-05-09T13:44:32.160Z,0.80
2023-05-09T13:47:21.232Z,1.27
2023-05-09T13:50:10.834Z,1.10
2023-05-09T13:53:05.661Z,1.15
2023-05-09T13:55:54.336Z,1.48
2023-05-09T13:58:43.008Z,1.25
2023-05-09T14:01:32.995Z,1.20
2023-05-09T14:04:22.948Z,1.10
2023-05-09T14:07:12.615Z,1.40
2023-05-09T14:10:10.900Z,1.40
2023-05-09T14:13:04.824Z,1.20
2023-05-09T14:15:53.403Z,1.30
2023-05-09T14:18:43.422Z,0.98
2023-05-09T14:21:35.059Z,1.08
2023-05-09T14:24:26.326Z,1.58
2023-05-09T14:27:15.217Z,0.93
2023-05-09T14:30:04.371Z,1.15
2023-05-09T14:32:53.032Z,1.17
2023-05-09T14:35:43.153Z,1.10
2023-05-09T14:38:33.359Z,1.20
2023-05-09T14:41:22.203Z,1.58
2023-05-09T14:44:10.873Z,1.50
2023-05-09T14:46:59.743Z,1.30
2023-05-09T14:49:48.365Z,1.25
2023-05-09T14:52:38.429Z,1.30
2023-05-09T14:55:28.020Z,1.15
2023-05-09T14:58:18.017Z,0.93
2023-05-09T15:01:07.567Z,1.40
2023-05-09T15:03:56.279Z,1.30
2023-05-09T15:06:45.054Z,1.40
2023-05-09T15:09:38.185Z,1.30
2023-05-09T15:12:26.836Z,1.10
2023-05-09T15:15:17.079Z,1.35
2023-05-09T15:18:05.900Z,1.10
2023-05-09T15:20:54.474Z,1.67
2023-05-09T15:23:43.189Z,1.33
2023-05-09T15:26:33.270Z,1.05
2023-05-09T15:29:23.236Z,1.40
2023-05-09T15:32:11.864Z,1.55
2023-05-09T15:35:02.109Z,1.83
2023-05-09T15:37:51.456Z,1.55
2023-05-09T15:40:41.571Z,1.10
2023-05-09T15:43:32.519Z,1.30
2023-05-09T15:46:21.840Z,1.67
2023-05-09T15:49:11.828Z,1.35
2023-05-09T15:52:01.568Z,1.35
2023-05-09T15:54:53.232Z,0.90
2023-05-09T15:57:41.952Z,1.27
2023-05-09T16:00:32.008Z,1.23
2023-05-09T16:03:21.801Z,0.95
2023-05-09T16:06:10.625Z,1.45
2023-05-09T16:08:59.456Z,1.25
2023-05-09T16:11:48.306Z,1.00
2023-05-09T16:14:37.618Z,1.20
2023-05-09T16:17:28.126Z,1.77
2023-05-09T16:20:28.075Z,0.98
2023-05-09T16:23:16.856Z,1.52
2023-05-09T16:26:05.534Z,1.00
2023-05-09T16:28:55.616Z,1.10
2023-05-09T16:31:45.198Z,1.33
2023-05-09T16:34:35.668Z,0.80
2023-05-09T16:37:24.574Z,1.08
2023-05-09T16:40:15.419Z,1.27
2023-05-09T16:43:04.670Z,1.40
2023-05-09T16:45:54.018Z,1.50
2023-05-09T16:48:47.711Z,1.80
2023-05-09T16:51:39.673Z,1.30
2023-05-09T16:54:28.373Z,1.73
2023-05-09T16:57:23.637Z,1.17
2023-05-09T17:00:13.750Z,1.63
2023-05-09T17:03:07.143Z,1.77
2023-05-09T17:05:56.306Z,1.50
2023-05-09T17:08:48.988Z,1.27
2023-05-09T17:11:37.953Z,1.40
2023-05-09T17:14:26.906Z,1.23
2023-05-09T17:17:17.674Z,1.65
2023-05-09T17:20:10.905Z,1.65
2023-05-09T17:23:00.738Z,1.52
2023-05-09T17:25:51.308Z,1.90
2023-05-09T17:28:40.165Z,1.40
2023-05-09T17:31:29.072Z,1.40
2023-05-09T17:34:17.664Z,1.15
2023-05-09T17:37:08.018Z,1.60
2023-05-09T17:40:00.411Z,1.25
2023-05-09T17:42:53.769Z,1.20
2023-05-09T17:45:42.671Z,1.40
2023-05-09T17:48:32.855Z,1.38
2023-05-09T17:51:22.412Z,1.48
2023-05-09T17:54:12.862Z,1.42
2023-05-09T17:57:03.031Z,1.73
2023-05-09T17:59:53.271Z,1.10
2023-05-09T18:02:42.741Z,1.17
2023-05-09T18:05:31.568Z,1.60
2023-05-09T18:08:20.864Z,3.13
2023-05-09T18:11:09.490Z,4.55
2023-05-09T18:13:58.414Z,18.77
2023-05-09T18:16:48.420Z,20.17
2023-05-09T18:19:37.477Z,32.70
2023-05-09T18:22:26.753Z,26.02
2023-05-09T18:25:17.003Z,14.27
2023-05-09T18:28:05.777Z,7.55
2023-05-09T18:30:55.499Z,5.47
2023-05-09T18:33:46.881Z,4.30
2023-05-09T18:36:36.060Z,3.40
2023-05-09T18:39:25.692Z,3.00
2023-05-09T18:42:17.368Z,3.38
2023-05-09T18:45:08.276Z,3.03
2023-05-09T18:47:57.852Z,2.53
2023-05-09T18:50:48.891Z,1.85
2023-05-09T18:53:37.713Z,1.60
2023-05-09T18:56:28.106Z,1.40
2023-05-09T18:59:17.324Z,1.27
2023-05-09T19:02:17.193Z,1.40
2023-05-09T19:05:19.540Z,1.60
2023-05-09T19:08:09.757Z,1.67
2023-05-09T19:11:02.978Z,1.80
2023-05-09T19:13:52.997Z,1.60
2023-05-09T19:16:41.829Z,1.50
2023-05-09T19:19:31.553Z,1.35
2023-05-09T19:22:20.823Z,2.30
2023-05-09T19:25:11.634Z,1.80
2023-05-09T19:28:00.267Z,1.35
2023-05-09T19:30:48.902Z,1.35
2023-05-09T19:33:37.629Z,1.55
2023-05-09T19:36:26.277Z,1.42
2023-05-09T19:39:15.248Z,1.25
2023-05-09T19:42:05.690Z,1.10
2023-05-09T19:44:54.844Z,1.58
2023-05-09T19:47:43.915Z,1.85
2023-05-09T19:50:32.642Z,1.10
2023-05-09T19:53:21.265Z,1.20
2023-05-09T19:56:14.370Z,1.35
2023-05-09T19:59:04.562Z,1.05
2023-05-09T20:01:53.375Z,1.45
2023-05-09T20:04:47.568Z,1.40
2023-05-09T20:07:36.745Z,1.20
2023-05-09T20:10:26.168Z,1.02
2023-05-09T20:13:17.363Z,1.00
2023-05-09T20:16:07.689Z,1.27
2023-05-09T20:18:58.495Z,1.73
2023-05-09T20:21:47.157Z,1.27
2023-05-09T20:24:36.791Z,1.08
2023-05-09T20:27:27.827Z,1.10
2023-05-09T20:30:17.513Z,1.10
2023-05-09T20:33:07.881Z,1.15
2023-05-09T20:35:56.556Z,1.00
2023-05-09T20:38:45.182Z,1.20
2023-05-09T20:41:34.778Z,1.00
2023-05-09T20:44:23.434Z,1.20
2023-05-09T20:47:12.730Z,0.90
2023-05-09T20:50:04.463Z,1.30
2023-05-09T20:52:53.096Z,1.10
2023-05-09T20:55:41.807Z,0.90
2023-05-09T20:58:33.547Z,0.82
2023-05-09T21:01:22.344Z,1.00
2023-05-09T21:04:11.345Z,1.05
2023-05-09T21:07:01.720Z,1.17
2023-05-09T21:09:54.093Z,1.00
2023-05-09T21:12:42.727Z,0.80
2023-05-09T21:15:31.330Z,0.90
2023-05-09T21:18:20.840Z,1.27
2023-05-09T21:21:09.646Z,1.00
2023-05-09T21:24:03.228Z,0.80
2023-05-09T21:26:52.339Z,1.10
2023-05-09T21:29:40.871Z,1.10
2023-05-09T21:32:29.622Z,0.88
2023-05-09T21:35:18.237Z,0.70
2023-05-09T21:38:07.016Z,0.90
2023-05-09T21:40:58.374Z,0.98
2023-05-09T21:43:47.015Z,1.02
2023-05-09T21:46:36.774Z,0.70
2023-05-09T21:49:25.687Z,1.20
2023-05-09T21:52:16.331Z,1.15
2023-05-09T21:55:05.258Z,0.98
2023-05-09T21:57:55.384Z,1.10
2023-05-09T22:00:44.338Z,0.90
2023-05-09T22:03:34.323Z,0.90
2023-05-09T22:06:23.136Z,0.88
2023-05-09T22:09:11.895Z,0.90
2023-05-09T22:12:00.628Z,1.10
2023-05-09T22:14:56.382Z,0.68
2023-05-09T22:17:45.740Z,0.77
2023-05-09T22:20:34.405Z,0.70
2023-05-09T22:23:23.090Z,0.63
2023-05-09T22:26:11.877Z,0.80
2023-05-09T22:29:00.911Z,0.68
2023-05-09T22:31:51.052Z,0.68
2023-05-09T22:34:39.916Z,0.57
2023-05-09T22:37:29.326Z,0.60
2023-05-09T22:40:18.249Z,0.68
2023-05-09T22:43:07.248Z,0.70
2023-05-09T22:45:56.214Z,0.57
2023-05-09T22:48:46.648Z,0.95
2023-05-09T22:51:35.266Z,0.75
2023-05-09T22:54:24.030Z,0.60
2023-05-09T22:57:13.230Z,0.60
2023-05-09T23:00:01.815Z,0.57
2023-05-09T23:02:50.770Z,0.50
2023-05-09T23:05:41.510Z,0.73
2023-05-09T23:08:30.114Z,0.47
2023-05-09T23:11:18.672Z,0.40
2023-05-09T23:14:07.461Z,0.80
2023-05-09T23:16:56.396Z,0.70
2023-05-09T23:19:45.937Z,0.55
2023-05-09T23:22:36.009Z,0.55
2023-05-09T23:25:24.768Z,0.63
2023-05-09T23:28:13.991Z,0.50
2023-05-09T23:31:02.658Z,0.50
2023-05-09T23:33:51.525Z,0.52
2023-05-09T23:36:40.122Z,0.60
2023-05-09T23:39:30.087Z,0.43
2023-05-09T23:42:18.614Z,0.70
2023-05-09T23:45:08.226Z,0.45
2023-05-09T23:47:57.172Z,0.52
2023-05-09T23:50:45.948Z,0.60
2023-05-09T23:53:35.210Z,0.35
2023-05-09T23:56:26.138Z,0.65
2023-05-09T23:59:15.300Z,0.47
